createdAt,value
2022-12-16T00:02:22.736Z,-2.79
2022-12-16T00:04:51.173Z,-2.85
2022-12-16T00:07:18.043Z,-2.88
2022-12-16T00:09:44.877Z,-2.95
2022-12-16T00:12:11.901Z,-2.88
2022-12-16T00:14:40.718Z,-2.84
2022-12-16T00:17:07.884Z,-2.78
2022-12-16T00:19:35.372Z,-2.78
2022-12-16T00:22:03.732Z,-2.76
2022-12-16T00:24:30.813Z,-2.78
2022-12-16T00:26:57.847Z,-2.61
2022-12-16T00:29:24.604Z,-2.69
2022-12-16T00:31:51.588Z,-2.60
2022-12-16T00:34:19.834Z,-2.79
2022-12-16T00:36:46.837Z,-2.78
2022-12-16T00:39:15.288Z,-2.82
2022-12-16T00:41:42.478Z,-2.78
2022-12-16T00:44:10.624Z,-2.73
2022-12-16T00:46:37.534Z,-2.76
2022-12-16T00:49:04.447Z,-2.61
2022-12-16T00:51:31.750Z,-2.59
2022-12-16T00:53:58.642Z,-2.62
2022-12-16T00:56:27.337Z,-2.60
2022-12-16T00:58:54.100Z,-2.64
2022-12-16T01:01:24.664Z,-2.66
2022-12-16T01:03:51.541Z,-2.65
2022-12-16T01:06:18.746Z,-2.67
2022-12-16T01:08:45.631Z,-2.68
2022-12-16T01:11:12.453Z,-2.70
2022-12-16T01:13:40.824Z,-2.78
2022-12-16T01:16:07.864Z,-2.67
2022-12-16T01:18:36.278Z,-2.71
2022-12-16T01:21:04.272Z,-2.77
2022-12-16T01:23:31.317Z,-2.70
2022-12-16T01:25:59.804Z,-2.79
2022-12-16T01:28:26.778Z,-2.81
2022-12-16T01:30:57.303Z,-2.81
2022-12-16T01:33:24.456Z,-2.59
2022-12-16T01:35:58.831Z,-2.53
2022-12-16T01:38:25.722Z,-2.61
2022-12-16T01:40:52.672Z,-2.67
2022-12-16T01:43:25.661Z,-2.72
2022-12-16T01:45:53.233Z,-2.78
2022-12-16T01:48:31.360Z,-2.69
2022-12-16T01:51:03.980Z,-2.75
2022-12-16T01:53:32.207Z,-2.77
2022-12-16T01:56:01.040Z,-2.59
2022-12-16T01:58:31.708Z,-2.68
2022-12-16T02:00:59.941Z,-2.67
2022-12-16T02:03:32.288Z,-2.72
2022-12-16T02:06:00.580Z,-2.74
2022-12-16T02:08:27.389Z,-2.77
2022-12-16T02:11:08.198Z,-2.84
2022-12-16T02:13:49.842Z,-2.73
2022-12-16T02:16:26.619Z,-2.84
2022-12-16T02:19:01.303Z,-2.95
2022-12-16T02:21:48.360Z,-2.73
2022-12-16T02:24:43.970Z,-2.74
2022-12-16T02:27:45.850Z,-2.59
2022-12-16T02:30:47.723Z,-2.73
2022-12-16T02:33:34.497Z,-2.82
2022-12-16T02:36:11.484Z,-2.76
2022-12-16T02:38:52.148Z,-2.69
2022-12-16T02:41:29.839Z,-2.56
2022-12-16T02:44:01.418Z,-2.40
2022-12-16T02:46:31.740Z,-2.40
2022-12-16T02:49:06.026Z,-2.50
2022-12-16T02:51:36.152Z,-2.42
2022-12-16T02:54:03.237Z,-2.40
2022-12-16T02:56:41.497Z,-2.43
2022-12-16T02:59:17.330Z,-2.48
2022-12-16T03:01:50.390Z,-2.53
2022-12-16T03:04:21.776Z,-2.60
2022-12-16T03:06:51.232Z,-2.65
2022-12-16T03:09:24.170Z,-2.79
2022-12-16T03:11:54.208Z,-2.58
2022-12-16T03:14:25.223Z,-2.69
2022-12-16T03:16:57.345Z,-2.60
2022-12-16T03:19:28.829Z,-2.62
2022-12-16T03:22:00.453Z,-2.67
2022-12-16T03:24:28.109Z,-2.78
2022-12-16T03:27:07.348Z,-2.83
2022-12-16T03:29:42.410Z,-2.72
2022-12-16T03:32:15.613Z,-2.73
2022-12-16T03:34:48.412Z,-2.84
2022-12-16T03:37:16.104Z,-2.85
2022-12-16T03:39:46.682Z,-2.81
2022-12-16T03:42:15.307Z,-2.86
2022-12-16T03:44:43.377Z,-2.85
2022-12-16T03:47:11.932Z,-2.67
2022-12-16T03:49:39.126Z,-2.65
2022-12-16T03:52:06.334Z,-2.72
2022-12-16T03:54:33.751Z,-2.80
2022-12-16T03:57:01.319Z,-2.78
2022-12-16T03:59:28.258Z,-2.85
2022-12-16T04:01:55.325Z,-2.65
2022-12-16T04:04:23.893Z,-2.74
2022-12-16T04:06:50.680Z,-2.60
2022-12-16T04:09:17.763Z,-2.69
2022-12-16T04:11:44.472Z,-2.79
2022-12-16T04:14:11.761Z,-2.91
2022-12-16T04:16:38.988Z,-2.59
2022-12-16T04:19:07.079Z,-2.56
2022-12-16T04:21:35.309Z,-2.65
2022-12-16T04:24:02.268Z,-2.74
2022-12-16T04:26:29.362Z,-2.72
2022-12-16T04:28:56.143Z,-2.64
2022-12-16T04:31:23.203Z,-2.60
2022-12-16T04:33:50.111Z,-2.59
2022-12-16T04:36:17.132Z,-2.51
2022-12-16T04:38:45.441Z,-2.54
2022-12-16T04:41:13.573Z,-2.55
2022-12-16T04:43:40.519Z,-2.53
2022-12-16T04:46:07.762Z,-2.48
2022-12-16T04:48:34.683Z,-2.51
2022-12-16T04:51:02.464Z,-2.37
2022-12-16T04:53:29.477Z,-2.42
2022-12-16T04:56:03.900Z,-2.42
2022-12-16T04:58:31.491Z,-2.41
2022-12-16T05:01:00.166Z,-2.39
2022-12-16T05:03:27.786Z,-2.48
2022-12-16T05:05:54.639Z,-2.46
2022-12-16T05:08:21.629Z,-2.26
2022-12-16T05:10:48.361Z,-2.33
2022-12-16T05:13:16.701Z,-2.38
2022-12-16T05:15:43.790Z,-2.40
2022-12-16T05:18:12.887Z,-2.34
2022-12-16T05:20:39.620Z,-2.26
2022-12-16T05:23:06.468Z,-2.31
2022-12-16T05:25:33.298Z,-2.35
2022-12-16T05:28:02.281Z,-2.37
2022-12-16T05:30:33.661Z,-2.21
2022-12-16T05:33:01.019Z,-2.30
2022-12-16T05:35:27.964Z,-2.21
2022-12-16T05:37:55.817Z,-2.45
2022-12-16T05:40:22.730Z,-2.64
2022-12-16T05:42:49.590Z,-2.67
2022-12-16T05:45:16.514Z,-2.73
2022-12-16T05:47:48.561Z,-2.71
2022-12-16T05:50:15.776Z,-2.51
2022-12-16T05:52:49.610Z,-2.47
2022-12-16T05:55:16.629Z,-2.60
2022-12-16T05:57:43.529Z,-2.83
2022-12-16T06:00:11.866Z,-2.76
2022-12-16T06:02:39.033Z,-2.85
2022-12-16T06:05:08.196Z,-2.90
2022-12-16T06:07:35.310Z,-2.86
2022-12-16T06:10:02.191Z,-2.89
2022-12-16T06:12:29.232Z,-2.76
2022-12-16T06:14:59.533Z,-2.81
2022-12-16T06:17:26.437Z,-2.79
2022-12-16T06:19:54.362Z,-2.89
2022-12-16T06:22:22.605Z,-2.97
2022-12-16T06:24:49.444Z,-2.85
2022-12-16T06:27:16.226Z,-2.74
2022-12-16T06:29:44.185Z,-2.80
2022-12-16T06:32:12.106Z,-2.86
2022-12-16T06:34:39.207Z,-2.79
2022-12-16T06:37:06.109Z,-2.81
2022-12-16T06:39:34.427Z,-2.56
2022-12-16T06:42:01.290Z,-2.59
2022-12-16T06:44:29.276Z,-2.61
2022-12-16T06:46:56.462Z,-2.44
2022-12-16T06:49:24.221Z,-2.49
2022-12-16T06:51:51.697Z,-2.50
2022-12-16T06:54:18.604Z,-2.50
2022-12-16T06:56:49.174Z,-2.49
2022-12-16T06:59:15.990Z,-2.53
2022-12-16T07:01:43.280Z,-2.48
2022-12-16T07:04:11.973Z,-2.35
2022-12-16T07:06:41.859Z,-2.37
2022-12-16T07:09:09.961Z,-2.41
2022-12-16T07:11:39.124Z,-2.42
2022-12-16T07:14:08.072Z,-2.35
2022-12-16T07:16:35.689Z,-2.31
2022-12-16T07:19:10.769Z,-2.33
2022-12-16T07:21:37.500Z,-2.18
2022-12-16T07:24:06.314Z,-2.20
2022-12-16T07:26:33.352Z,-2.12
2022-12-16T07:29:01.350Z,-2.10
2022-12-16T07:31:32.698Z,-1.98
2022-12-16T07:34:02.908Z,-1.99
2022-12-16T07:36:30.232Z,-1.96
2022-12-16T07:38:57.151Z,-1.95
2022-12-16T07:41:24.291Z,-1.87
2022-12-16T07:43:51.219Z,-1.68
2022-12-16T07:46:18.238Z,-1.66
2022-12-16T07:48:46.686Z,-1.65
2022-12-16T07:51:13.527Z,-1.59
2022-12-16T07:53:41.087Z,-1.62
2022-12-16T07:56:08.639Z,-1.44
2022-12-16T07:58:35.508Z,-1.40
2022-12-16T08:03:52.645Z,-1.37
2022-12-16T08:06:19.859Z,-1.30
2022-12-16T08:08:46.755Z,-1.31
2022-12-16T08:11:14.772Z,-1.14
2022-12-16T08:13:42.312Z,-1.16
2022-12-16T08:16:09.245Z,-1.12
2022-12-16T08:18:36.268Z,-1.10
2022-12-16T08:21:04.748Z,-1.08
2022-12-16T08:23:32.231Z,-1.03
2022-12-16T08:25:59.190Z,-1.03
2022-12-16T08:28:26.014Z,-1.08
2022-12-16T08:30:52.933Z,-1.04
2022-12-16T08:33:20.093Z,-1.03
2022-12-16T08:35:47.328Z,-0.97
2022-12-16T08:38:15.659Z,-0.93
2022-12-16T08:40:43.321Z,-1.06
2022-12-16T08:43:12.920Z,-1.12
2022-12-16T08:45:40.565Z,-1.08
2022-12-16T08:48:07.661Z,-0.98
2022-12-16T08:50:34.508Z,-0.88
2022-12-16T08:53:02.547Z,-0.79
2022-12-16T08:55:30.759Z,-0.71
2022-12-16T08:57:57.698Z,-0.61
2022-12-16T09:00:25.620Z,-0.57
2022-12-16T09:02:55.555Z,-0.39
2022-12-16T09:05:22.950Z,-0.33
2022-12-16T09:07:49.999Z,-0.21
2022-12-16T09:10:17.113Z,-0.11
2022-12-16T09:12:46.513Z,-0.18
2022-12-16T09:15:13.695Z,-0.20
2022-12-16T09:17:44.704Z,-0.29
2022-12-16T09:20:12.693Z,-0.17
2022-12-16T09:22:39.878Z,-0.22
2022-12-16T09:25:07.345Z,-0.28
2022-12-16T09:27:34.144Z,-0.09
2022-12-16T09:30:02.547Z,0.04
2022-12-16T09:32:29.515Z,0.19
2022-12-16T09:34:56.423Z,0.31
2022-12-16T09:37:23.216Z,0.32
2022-12-16T09:39:51.202Z,0.30
2022-12-16T09:42:26.390Z,0.33
2022-12-16T09:45:03.040Z,0.28
2022-12-16T09:47:39.614Z,0.32
2022-12-16T09:50:20.575Z,0.22
2022-12-16T09:52:55.696Z,0.19
2022-12-16T09:55:29.118Z,0.10
2022-12-16T09:57:57.217Z,0.05
2022-12-16T10:00:26.807Z,0.11
2022-12-16T10:03:03.289Z,0.03
2022-12-16T10:05:49.940Z,-0.00
2022-12-16T10:08:23.936Z,-0.07
2022-12-16T10:10:54.307Z,-0.13
2022-12-16T10:13:32.860Z,-0.17
2022-12-16T10:16:10.386Z,-0.11
2022-12-16T10:18:50.357Z,-0.23
2022-12-16T10:21:22.707Z,-0.01
2022-12-16T10:23:57.334Z,-0.06
2022-12-16T10:26:33.128Z,-0.14
2022-12-16T10:29:13.307Z,-0.15
2022-12-16T10:31:40.959Z,-0.15
2022-12-16T10:34:13.746Z,-0.10
2022-12-16T10:36:42.440Z,-0.07
2022-12-16T10:39:22.619Z,0.01
2022-12-16T10:41:52.863Z,0.11
2022-12-16T10:44:24.475Z,0.19
2022-12-16T10:46:52.656Z,0.17
2022-12-16T10:49:21.581Z,0.29
2022-12-16T10:51:48.709Z,0.33
2022-12-16T10:54:33.087Z,0.36
2022-12-16T10:57:09.026Z,0.35
2022-12-16T10:59:38.456Z,0.39
2022-12-16T11:02:19.139Z,0.37
2022-12-16T11:04:48.074Z,0.42
2022-12-16T11:07:32.178Z,0.45
2022-12-16T11:09:58.980Z,0.46
2022-12-16T11:12:27.963Z,0.56
2022-12-16T11:15:27.166Z,0.48
2022-12-16T11:18:03.206Z,0.48
2022-12-16T11:20:31.435Z,0.49
2022-12-16T11:23:16.675Z,0.55
2022-12-16T11:25:43.422Z,0.57
2022-12-16T11:28:13.530Z,0.66
2022-12-16T11:30:40.262Z,0.61
2022-12-16T11:33:14.605Z,0.54
2022-12-16T11:35:48.287Z,0.45
2022-12-16T11:38:21.662Z,0.38
2022-12-16T11:40:49.761Z,0.43
2022-12-16T11:43:20.574Z,0.29
2022-12-16T11:45:49.021Z,0.35
2022-12-16T11:48:27.743Z,0.32
2022-12-16T11:50:58.451Z,0.39
2022-12-16T11:53:32.915Z,0.46
2022-12-16T11:56:07.606Z,0.52
2022-12-16T11:58:45.227Z,0.59
2022-12-16T12:01:17.332Z,0.64
2022-12-16T12:03:47.325Z,0.66
2022-12-16T12:06:27.033Z,0.70
2022-12-16T12:09:08.103Z,0.75
2022-12-16T12:11:42.346Z,0.79
2022-12-16T12:14:18.106Z,0.79
2022-12-16T12:16:59.726Z,0.78
2022-12-16T12:19:44.187Z,0.77
2022-12-16T12:22:27.506Z,0.73
2022-12-16T12:25:05.241Z,0.70
2022-12-16T12:27:44.522Z,0.68
2022-12-16T12:30:16.656Z,0.66
2022-12-16T12:32:53.838Z,0.75
2022-12-16T12:35:46.784Z,0.71
2022-12-16T12:38:19.886Z,0.70
2022-12-16T12:40:57.877Z,0.66
2022-12-16T12:43:37.530Z,0.66
2022-12-16T12:46:16.536Z,0.52
2022-12-16T12:48:56.104Z,0.54
2022-12-16T12:51:35.180Z,0.52
2022-12-16T12:54:15.744Z,0.45
2022-12-16T12:56:48.763Z,0.41
2022-12-16T12:59:22.532Z,0.41
2022-12-16T13:01:53.797Z,0.32
2022-12-16T13:04:25.659Z,0.26
2022-12-16T13:06:54.078Z,0.20
2022-12-16T13:09:25.930Z,0.20
2022-12-16T13:12:26.948Z,0.22
2022-12-16T13:14:56.382Z,0.14
2022-12-16T13:17:25.879Z,0.17
2022-12-16T13:19:59.559Z,0.22
2022-12-16T13:22:31.351Z,0.29
2022-12-16T13:24:59.666Z,0.37
2022-12-16T13:27:29.853Z,0.48
2022-12-16T13:30:02.523Z,0.60
2022-12-16T13:32:29.361Z,0.66
2022-12-16T13:35:01.045Z,0.71
2022-12-16T13:37:32.551Z,0.76
2022-12-16T13:40:07.174Z,0.77
2022-12-16T13:42:54.994Z,0.82
2022-12-16T13:45:41.645Z,0.92
2022-12-16T13:48:36.882Z,0.88
2022-12-16T13:51:03.827Z,0.76
2022-12-16T13:53:40.931Z,0.77
2022-12-16T13:56:15.568Z,0.80
2022-12-16T13:58:45.761Z,0.74
2022-12-16T14:01:18.033Z,0.70
2022-12-16T14:03:48.081Z,0.65
2022-12-16T14:06:19.615Z,0.56
2022-12-16T14:08:46.675Z,0.44
2022-12-16T14:11:21.878Z,0.43
2022-12-16T14:13:56.698Z,0.53
2022-12-16T14:16:36.609Z,0.45
2022-12-16T14:19:18.272Z,0.37
2022-12-16T14:21:51.385Z,0.29
2022-12-16T14:24:24.253Z,0.23
2022-12-16T14:26:53.196Z,0.23
2022-12-16T14:29:24.622Z,0.30
2022-12-16T14:31:53.279Z,0.32
2022-12-16T14:34:22.408Z,0.19
2022-12-16T14:36:49.773Z,0.16
2022-12-16T14:39:22.302Z,0.08
2022-12-16T14:41:53.076Z,0.00
2022-12-16T14:44:22.094Z,0.08
2022-12-16T14:46:50.549Z,0.01
2022-12-16T14:49:22.513Z,-0.16
2022-12-16T14:51:49.729Z,-0.12
2022-12-16T14:54:18.679Z,-0.24
2022-12-16T14:56:45.514Z,-0.09
2022-12-16T14:59:19.113Z,-0.19
2022-12-16T15:01:46.840Z,-0.10
2022-12-16T15:04:18.416Z,-0.16
2022-12-16T15:06:49.747Z,-0.27
2022-12-16T15:09:25.292Z,-0.28
2022-12-16T15:11:55.573Z,-0.33
2022-12-16T15:14:28.626Z,-0.37
2022-12-16T15:16:57.083Z,-0.39
2022-12-16T15:19:24.854Z,-0.34
2022-12-16T15:21:51.767Z,-0.32
2022-12-16T15:24:23.057Z,-0.38
2022-12-16T15:26:49.878Z,-0.42
2022-12-16T15:29:33.845Z,-0.54
2022-12-16T15:32:03.492Z,-0.38
2022-12-16T15:34:34.280Z,-0.48
2022-12-16T15:37:01.327Z,-0.43
2022-12-16T15:39:35.646Z,-0.30
2022-12-16T15:42:02.517Z,-0.33
2022-12-16T15:44:31.891Z,-0.40
2022-12-16T15:46:58.966Z,-0.50
2022-12-16T15:49:31.721Z,-0.35
2022-12-16T15:51:58.675Z,-0.29
2022-12-16T15:54:26.086Z,-0.23
2022-12-16T15:56:53.042Z,-0.27
2022-12-16T15:59:26.861Z,-0.38
2022-12-16T16:01:59.581Z,-0.28
2022-12-16T16:04:30.517Z,-0.31
2022-12-16T16:06:57.412Z,-0.40
2022-12-16T16:09:27.012Z,-0.44
2022-12-16T16:11:53.768Z,-0.42
2022-12-16T16:14:20.711Z,-0.29
2022-12-16T16:16:47.504Z,-0.37
2022-12-16T16:19:21.775Z,-0.43
2022-12-16T16:21:48.581Z,-0.36
2022-12-16T16:24:15.487Z,-0.23
2022-12-16T16:26:43.604Z,-0.29
2022-12-16T16:29:10.956Z,-0.18
2022-12-16T16:31:37.913Z,-0.07
2022-12-16T16:34:05.218Z,-0.11
2022-12-16T16:36:33.764Z,-0.19
2022-12-16T16:39:01.188Z,-0.13
2022-12-16T16:41:29.158Z,-0.21
2022-12-16T16:43:56.597Z,-0.19
2022-12-16T16:46:32.435Z,-0.26
2022-12-16T16:49:02.277Z,-0.31
2022-12-16T16:51:29.327Z,-0.39
2022-12-16T16:53:57.504Z,-0.46
2022-12-16T16:56:24.647Z,-0.47
2022-12-16T16:58:51.369Z,-0.59
2022-12-16T17:01:21.271Z,-0.63
2022-12-16T17:03:48.469Z,-0.64
2022-12-16T17:06:15.494Z,-0.67
2022-12-16T17:08:42.430Z,-0.71
2022-12-16T17:11:18.098Z,-0.53
2022-12-16T17:13:44.936Z,-0.52
2022-12-16T17:16:12.855Z,-0.52
2022-12-16T17:18:44.620Z,-0.59
2022-12-16T17:21:13.811Z,-0.64
2022-12-16T17:23:40.888Z,-0.69
2022-12-16T17:26:09.981Z,-0.72
2022-12-16T17:28:38.163Z,-0.75
2022-12-16T17:31:06.165Z,-0.78
2022-12-16T17:33:33.581Z,-0.60
2022-12-16T17:36:01.129Z,-0.61
2022-12-16T17:38:29.131Z,-0.70
2022-12-16T17:40:56.315Z,-0.56
2022-12-16T17:43:25.242Z,-0.60
2022-12-16T17:46:01.193Z,-0.68
2022-12-16T17:48:27.946Z,-0.70
2022-12-16T17:50:54.713Z,-0.70
2022-12-16T17:53:22.640Z,-0.75
2022-12-16T17:55:49.428Z,-0.76
2022-12-16T17:58:16.279Z,-0.79
2022-12-16T18:00:43.104Z,-0.78
2022-12-16T18:03:11.572Z,-0.75
2022-12-16T18:05:44.277Z,-0.73
2022-12-16T18:08:13.228Z,-0.71
2022-12-16T18:10:39.952Z,-0.71
2022-12-16T18:13:06.733Z,-0.72
2022-12-16T18:15:33.735Z,-0.69
2022-12-16T18:18:00.503Z,-0.71
2022-12-16T18:20:28.753Z,-0.71
2022-12-16T18:22:55.579Z,-0.73
2022-12-16T18:25:23.557Z,-0.69
2022-12-16T18:27:50.404Z,-0.61
2022-12-16T18:30:17.554Z,-0.69
2022-12-16T18:32:44.329Z,-0.68
2022-12-16T18:35:11.225Z,-0.68
2022-12-16T18:37:39.317Z,-0.67
2022-12-16T18:40:07.794Z,-0.70
2022-12-16T18:42:34.701Z,-0.66
2022-12-16T18:45:02.698Z,-0.64
2022-12-16T18:47:29.480Z,-0.57
2022-12-16T18:49:56.485Z,-0.65
2022-12-16T18:52:23.323Z,-0.67
2022-12-16T18:54:52.621Z,-0.66
2022-12-16T18:57:19.657Z,-0.66
2022-12-16T18:59:46.468Z,-0.60
2022-12-16T19:02:15.524Z,-0.71
2022-12-16T19:04:42.332Z,-0.57
2022-12-16T19:07:09.586Z,-0.52
2022-12-16T19:09:36.609Z,-0.53
2022-12-16T19:12:06.748Z,-0.45
2022-12-16T19:14:33.726Z,-0.54
2022-12-16T19:17:00.862Z,-0.59
2022-12-16T19:19:27.609Z,-0.63
2022-12-16T19:24:41.426Z,-0.78
2022-12-16T19:27:15.215Z,-0.73
2022-12-16T19:29:42.399Z,-0.89
2022-12-16T19:32:09.430Z,-1.00
2022-12-16T19:34:36.308Z,-0.89
2022-12-16T19:37:03.258Z,-0.97
2022-12-16T19:39:30.354Z,-0.97
2022-12-16T19:41:57.152Z,-0.86
2022-12-16T19:44:26.398Z,-0.92
2022-12-16T19:46:56.090Z,-0.98
2022-12-16T19:49:23.139Z,-0.97
2022-12-16T19:51:50.166Z,-0.90
2022-12-16T19:54:17.157Z,-0.86
2022-12-16T19:56:43.883Z,-0.90
2022-12-16T19:59:10.826Z,-0.88
2022-12-16T20:01:39.064Z,-0.79
2022-12-16T20:04:06.156Z,-0.77
2022-12-16T20:06:32.901Z,-0.90
2022-12-16T20:08:59.744Z,-0.87
2022-12-16T20:11:26.749Z,-0.84
2022-12-16T20:13:56.026Z,-0.85
2022-12-16T20:16:24.250Z,-0.88
2022-12-16T20:18:54.928Z,-0.95
2022-12-16T20:21:23.142Z,-0.95
2022-12-16T20:23:51.111Z,-1.00
2022-12-16T20:26:19.133Z,-1.04
2022-12-16T20:28:47.582Z,-1.04
2022-12-16T20:31:15.429Z,-1.07
2022-12-16T20:33:42.627Z,-1.09
2022-12-16T20:36:11.253Z,-1.04
2022-12-16T20:38:38.091Z,-1.04
2022-12-16T20:41:06.282Z,-0.98
2022-12-16T20:43:34.056Z,-0.98
2022-12-16T20:46:02.132Z,-0.98
2022-12-16T20:48:29.042Z,-0.95
2022-12-16T20:50:57.450Z,-0.90
2022-12-16T20:53:26.841Z,-0.95
2022-12-16T20:55:53.776Z,-0.96
2022-12-16T20:58:23.317Z,-0.98
2022-12-16T21:00:51.821Z,-1.03
2022-12-16T21:03:18.825Z,-0.96
2022-12-16T21:05:46.011Z,-1.03
2022-12-16T21:08:14.307Z,-1.03
2022-12-16T21:10:42.967Z,-1.05
2022-12-16T21:13:14.252Z,-1.04
2022-12-16T21:15:41.399Z,-1.04
2022-12-16T21:18:08.446Z,-1.04
2022-12-16T21:20:36.475Z,-1.05
2022-12-16T21:23:09.412Z,-1.06
2022-12-16T21:25:36.258Z,-0.93
2022-12-16T21:28:04.849Z,-1.08
2022-12-16T21:30:31.702Z,-1.05
2022-12-16T21:32:58.721Z,-1.03
2022-12-16T21:35:25.475Z,-1.06
2022-12-16T21:37:53.246Z,-0.98
2022-12-16T21:40:20.562Z,-0.96
2022-12-16T21:42:47.339Z,-0.97
2022-12-16T21:45:15.987Z,-0.95
2022-12-16T21:47:43.772Z,-0.97
2022-12-16T21:50:10.593Z,-1.02
2022-12-16T21:52:37.729Z,-0.88
2022-12-16T21:55:05.261Z,-0.88
2022-12-16T21:57:33.022Z,-0.77
2022-12-16T21:59:59.857Z,-0.74
2022-12-16T22:02:28.080Z,-0.76
2022-12-16T22:04:54.807Z,-0.78
2022-12-16T22:07:23.797Z,-0.73
2022-12-16T22:09:50.973Z,-0.71
2022-12-16T22:12:18.760Z,-0.74
2022-12-16T22:14:46.679Z,-0.83
2022-12-16T22:17:13.507Z,-0.89
2022-12-16T22:19:41.897Z,-0.94
2022-12-16T22:22:08.671Z,-0.97
2022-12-16T22:24:37.554Z,-0.82
2022-12-16T22:27:04.386Z,-0.86
2022-12-16T22:29:34.382Z,-0.80
2022-12-16T22:32:01.228Z,-0.78
2022-12-16T22:34:27.967Z,-0.77
2022-12-16T22:39:45.187Z,-0.92
2022-12-16T22:42:13.375Z,-0.94
2022-12-16T22:44:40.151Z,-0.96
2022-12-16T22:47:08.068Z,-1.03
2022-12-16T22:49:34.807Z,-1.03
2022-12-16T22:52:03.783Z,-1.04
2022-12-16T22:54:30.745Z,-0.99
2022-12-16T22:56:57.504Z,-0.95
2022-12-16T22:59:24.436Z,-0.98
2022-12-16T23:01:51.410Z,-1.04
2022-12-16T23:04:18.786Z,-1.04
2022-12-16T23:06:45.814Z,-1.04
2022-12-16T23:09:14.147Z,-1.03
2022-12-16T23:11:42.036Z,-1.02
2022-12-16T23:14:09.065Z,-1.00
2022-12-16T23:16:36.384Z,-1.00
2022-12-16T23:19:03.243Z,-0.99
2022-12-16T23:21:30.256Z,-1.02
2022-12-16T23:23:57.211Z,-1.01
2022-12-16T23:26:26.533Z,-1.05
2022-12-16T23:28:55.138Z,-1.04
2022-12-16T23:31:23.417Z,-1.02
2022-12-16T23:33:50.272Z,-1.01
2022-12-16T23:36:17.072Z,-0.97
2022-12-16T23:38:43.904Z,-0.98
2022-12-16T23:41:13.446Z,-1.00
2022-12-16T23:43:42.170Z,-1.00
2022-12-16T23:46:09.613Z,-1.01
2022-12-16T23:48:36.501Z,-1.02
2022-12-16T23:51:04.669Z,-1.04
2022-12-16T23:53:31.653Z,-1.07
2022-12-16T23:56:01.487Z,-1.04
2022-12-16T23:58:28.269Z,-1.07
